sensor_id;sensor_type;location;lat;lon;timestamp;pressure;altitude;pressure_sealevel;temperature;humidity
7200;BME280;3641;49.082;8.200;2023-08-31T00:00:09;99773.97;;;15.52;84.66
7200;BME280;3641;49.082;8.200;2023-08-31T00:02:36;99781.03;;;15.48;84.90
7200;BME280;3641;49.082;8.200;2023-08-31T00:05:03;99785.06;;;15.64;85.34
7200;BME280;3641;49.082;8.200;2023-08-31T00:07:30;99789.66;;;15.51;87.34
7200;BME280;3641;49.082;8.200;2023-08-31T00:09:58;99790.28;;;14.98;93.15
7200;BME280;3641;49.082;8.200;2023-08-31T00:12:25;99781.34;;;14.59;96.81
7200;BME280;3641;49.082;8.200;2023-08-31T00:14:51;99778.22;;;14.55;97.51
7200;BME280;3641;49.082;8.200;2023-08-31T00:17:18;99782.72;;;14.75;95.49
7200;BME280;3641;49.082;8.200;2023-08-31T00:19:44;99793.44;;;15.01;93.58
7200;BME280;3641;49.082;8.200;2023-08-31T00:22:10;99786.97;;;14.70;96.29
7200;BME280;3641;49.082;8.200;2023-08-31T00:24:37;99776.13;;;14.76;95.42
7200;BME280;3641;49.082;8.200;2023-08-31T00:27:05;99779.06;;;14.99;92.69
7200;BME280;3641;49.082;8.200;2023-08-31T00:29:32;99777.97;;;15.19;91.30
7200;BME280;3641;49.082;8.200;2023-08-31T00:31:59;99777.38;;;15.17;88.60
7200;BME280;3641;49.082;8.200;2023-08-31T00:34:25;99781.28;;;15.09;92.66
7200;BME280;3641;49.082;8.200;2023-08-31T00:36:52;99779.59;;;14.89;93.28
7200;BME280;3641;49.082;8.200;2023-08-31T00:39:18;99778.22;;;14.99;92.46
7200;BME280;3641;49.082;8.200;2023-08-31T00:41:46;99773.56;;;14.99;92.27
7200;BME280;3641;49.082;8.200;2023-08-31T00:44:14;99779.53;;;14.78;94.62
7200;BME280;3641;49.082;8.200;2023-08-31T00:46:40;99783.19;;;15.08;91.92
7200;BME280;3641;49.082;8.200;2023-08-31T00:49:07;99793.84;;;14.54;97.07
7200;BME280;3641;49.082;8.200;2023-08-31T00:51:34;99787.03;;;14.64;94.94
7200;BME280;3641;49.082;8.200;2023-08-31T00:54:02;99805.22;;;14.65;96.43
7200;BME280;3641;49.082;8.200;2023-08-31T00:56:30;99787.97;;;14.76;96.79
7200;BME280;3641;49.082;8.200;2023-08-31T00:58:57;99792.50;;;14.89;96.02
7200;BME280;3641;49.082;8.200;2023-08-31T01:01:30;99787.38;;;14.93;92.50
7200;BME280;3641;49.082;8.200;2023-08-31T01:04:09;99799.16;;;15.18;91.52
7200;BME280;3641;49.082;8.200;2023-08-31T01:06:50;99797.53;;;15.11;89.23
7200;BME280;3641;49.082;8.200;2023-08-31T01:09:27;99796.63;;;15.35;85.57
7200;BME280;3641;49.082;8.200;2023-08-31T01:12:00;99800.47;;;15.16;91.44
7200;BME280;3641;49.082;8.200;2023-08-31T01:14:32;99791.56;;;14.77;94.78
7200;BME280;3641;49.082;8.200;2023-08-31T01:17:02;99793.47;;;14.51;95.91
7200;BME280;3641;49.082;8.200;2023-08-31T01:19:47;99791.69;;;14.63;94.94
7200;BME280;3641;49.082;8.200;2023-08-31T01:22:25;99796.19;;;15.01;91.70
7200;BME280;3641;49.082;8.200;2023-08-31T01:24:54;99794.47;;;15.19;87.78
7200;BME280;3641;49.082;8.200;2023-08-31T01:27:21;99791.75;;;15.00;91.73
7200;BME280;3641;49.082;8.200;2023-08-31T01:29:48;99796.19;;;15.01;89.49
7200;BME280;3641;49.082;8.200;2023-08-31T01:32:14;99801.44;;;14.84;91.79
7200;BME280;3641;49.082;8.200;2023-08-31T01:34:40;99809.16;;;14.44;96.02
7200;BME280;3641;49.082;8.200;2023-08-31T01:37:12;99803.50;;;14.89;89.84
7200;BME280;3641;49.082;8.200;2023-08-31T01:39:42;99809.44;;;14.35;96.15
7200;BME280;3641;49.082;8.200;2023-08-31T01:42:15;99808.66;;;14.53;93.33
7200;BME280;3641;49.082;8.200;2023-08-31T01:44:43;99817.28;;;14.32;96.53
7200;BME280;3641;49.082;8.200;2023-08-31T01:47:15;99810.78;;;14.51;92.73
7200;BME280;3641;49.082;8.200;2023-08-31T01:49:42;99816.53;;;14.18;98.32
7200;BME280;3641;49.082;8.200;2023-08-31T01:52:09;99821.09;;;14.56;92.21
7200;BME280;3641;49.082;8.200;2023-08-31T01:54:35;99822.94;;;14.05;97.46
7200;BME280;3641;49.082;8.200;2023-08-31T01:57:04;99815.81;;;14.29;93.37
7200;BME280;3641;49.082;8.200;2023-08-31T01:59:32;99824.91;;;14.30;94.16
7200;BME280;3641;49.082;8.200;2023-08-31T02:01:59;99829.91;;;14.08;97.42
7200;BME280;3641;49.082;8.200;2023-08-31T02:04:25;99832.53;;;13.89;99.51
7200;BME280;3641;49.082;8.200;2023-08-31T02:06:52;99832.72;;;14.01;98.13
7200;BME280;3641;49.082;8.200;2023-08-31T02:09:18;99828.03;;;14.33;92.11
7200;BME280;3641;49.082;8.200;2023-08-31T02:11:45;99816.91;;;14.53;90.57
7200;BME280;3641;49.082;8.200;2023-08-31T02:14:11;99832.72;;;14.26;94.70
7200;BME280;3641;49.082;8.200;2023-08-31T02:16:39;99828.28;;;14.57;90.76
7200;BME280;3641;49.082;8.200;2023-08-31T02:19:05;99824.13;;;14.48;92.89
7200;BME280;3641;49.082;8.200;2023-08-31T02:21:32;99826.91;;;14.73;87.99
7200;BME280;3641;49.082;8.200;2023-08-31T02:23:58;99831.66;;;14.27;94.76
7200;BME280;3641;49.082;8.200;2023-08-31T02:26:24;99841.22;;;13.86;97.72
7200;BME280;3641;49.082;8.200;2023-08-31T02:28:51;99831.41;;;14.04;96.14
7200;BME280;3641;49.082;8.200;2023-08-31T02:31:17;99835.38;;;14.40;93.95
7200;BME280;3641;49.082;8.200;2023-08-31T02:33:46;99828.97;;;14.78;86.93
7200;BME280;3641;49.082;8.200;2023-08-31T02:36:13;99832.56;;;14.21;95.09
7200;BME280;3641;49.082;8.200;2023-08-31T02:38:39;99838.44;;;14.25;93.37
7200;BME280;3641;49.082;8.200;2023-08-31T02:41:06;99836.72;;;14.30;92.25
7200;BME280;3641;49.082;8.200;2023-08-31T02:43:32;99841.66;;;14.15;94.59
7200;BME280;3641;49.082;8.200;2023-08-31T02:45:59;99837.63;;;13.86;97.02
7200;BME280;3641;49.082;8.200;2023-08-31T02:48:26;99837.78;;;13.97;96.60
7200;BME280;3641;49.082;8.200;2023-08-31T02:50:56;99843.69;;;14.26;93.59
7200;BME280;3641;49.082;8.200;2023-08-31T02:53:22;99836.66;;;14.05;94.11
7200;BME280;3641;49.082;8.200;2023-08-31T02:55:49;99846.00;;;13.97;94.25
7200;BME280;3641;49.082;8.200;2023-08-31T02:58:15;99840.59;;;13.84;96.07
7200;BME280;3641;49.082;8.200;2023-08-31T03:00:42;99840.06;;;14.07;95.15
7200;BME280;3641;49.082;8.200;2023-08-31T03:03:11;99845.06;;;13.78;96.72
7200;BME280;3641;49.082;8.200;2023-08-31T03:05:37;99844.84;;;14.12;94.68
7200;BME280;3641;49.082;8.200;2023-08-31T03:08:05;99842.59;;;14.09;94.41
7200;BME280;3641;49.082;8.200;2023-08-31T03:10:32;99844.28;;;14.35;89.51
7200;BME280;3641;49.082;8.200;2023-08-31T03:12:58;99862.19;;;13.74;95.68
7200;BME280;3641;49.082;8.200;2023-08-31T03:15:24;99860.84;;;13.83;96.83
7200;BME280;3641;49.082;8.200;2023-08-31T03:17:51;99857.06;;;13.84;96.67
7200;BME280;3641;49.082;8.200;2023-08-31T03:20:17;99867.84;;;14.17;91.17
7200;BME280;3641;49.082;8.200;2023-08-31T03:22:44;99864.03;;;13.87;96.12
7200;BME280;3641;49.082;8.200;2023-08-31T03:25:11;99873.56;;;14.16;94.79
7200;BME280;3641;49.082;8.200;2023-08-31T03:27:38;99872.19;;;14.00;95.29
7200;BME280;3641;49.082;8.200;2023-08-31T03:30:05;99872.13;;;14.39;91.38
7200;BME280;3641;49.082;8.200;2023-08-31T03:32:32;99877.13;;;14.23;93.48
7200;BME280;3641;49.082;8.200;2023-08-31T03:34:59;99881.44;;;14.06;94.83
7200;BME280;3641;49.082;8.200;2023-08-31T03:37:25;99879.06;;;13.77;96.92
7200;BME280;3641;49.082;8.200;2023-08-31T03:39:52;99876.34;;;14.41;91.84
7200;BME280;3641;49.082;8.200;2023-08-31T03:42:20;99876.84;;;14.31;90.14
7200;BME280;3641;49.082;8.200;2023-08-31T03:44:46;99875.69;;;13.69;96.91
7200;BME280;3641;49.082;8.200;2023-08-31T03:47:13;99878.44;;;13.75;97.46
7200;BME280;3641;49.082;8.200;2023-08-31T03:49:39;99881.06;;;13.50;99.42
7200;BME280;3641;49.082;8.200;2023-08-31T03:52:05;99887.63;;;13.36;99.67
7200;BME280;3641;49.082;8.200;2023-08-31T03:54:32;99879.19;;;13.31;100.00
7200;BME280;3641;49.082;8.200;2023-08-31T03:56:58;99880.31;;;13.75;97.91
7200;BME280;3641;49.082;8.200;2023-08-31T03:59:26;99889.53;;;13.35;100.00
7200;BME280;3641;49.082;8.200;2023-08-31T04:01:52;99887.88;;;13.07;100.00
7200;BME280;3641;49.082;8.200;2023-08-31T04:04:19;99885.75;;;13.09;100.00
7200;BME280;3641;49.082;8.200;2023-08-31T04:06:45;99892.06;;;13.17;100.00
7200;BME280;3641;49.082;8.200;2023-08-31T04:09:12;99888.66;;;13.41;100.00
7200;BME280;3641;49.082;8.200;2023-08-31T04:11:38;99892.06;;;13.17;100.00
7200;BME280;3641;49.082;8.200;2023-08-31T04:14:04;99885.69;;;13.50;100.00
7200;BME280;3641;49.082;8.200;2023-08-31T04:16:32;99889.00;;;13.65;97.55
7200;BME280;3641;49.082;8.200;2023-08-31T04:18:59;99898.38;;;13.44;100.00
7200;BME280;3641;49.082;8.200;2023-08-31T04:21:25;99903.41;;;13.47;99.41
7200;BME280;3641;49.082;8.200;2023-08-31T04:23:52;99903.56;;;13.66;98.04
7200;BME280;3641;49.082;8.200;2023-08-31T04:26:18;99909.63;;;13.81;95.95
7200;BME280;3641;49.082;8.200;2023-08-31T04:28:45;99903.78;;;13.57;98.05
7200;BME280;3641;49.082;8.200;2023-08-31T04:31:12;99900.91;;;13.46;99.65
7200;BME280;3641;49.082;8.200;2023-08-31T04:33:39;99893.22;;;13.68;96.17
7200;BME280;3641;49.082;8.200;2023-08-31T04:36:06;99897.31;;;13.25;100.00
7200;BME280;3641;49.082;8.200;2023-08-31T04:38:31;99903.41;;;13.47;98.95
7200;BME280;3641;49.082;8.200;2023-08-31T04:40:58;99906.56;;;13.51;98.19
7200;BME280;3641;49.082;8.200;2023-08-31T04:43:25;99909.13;;;13.97;92.44
7200;BME280;3641;49.082;8.200;2023-08-31T04:45:52;99911.78;;;13.72;96.99
7200;BME280;3641;49.082;8.200;2023-08-31T04:48:18;99913.72;;;13.58;97.46
7200;BME280;3641;49.082;8.200;2023-08-31T04:50:46;99923.53;;;13.86;94.88
7200;BME280;3641;49.082;8.200;2023-08-31T04:53:13;99925.44;;;13.86;94.40
7200;BME280;3641;49.082;8.200;2023-08-31T04:55:39;99925.84;;;13.89;93.34
7200;BME280;3641;49.082;8.200;2023-08-31T04:58:06;99917.53;;;13.51;97.87
7200;BME280;3641;49.082;8.200;2023-08-31T05:00:32;99930.13;;;13.72;96.13
7200;BME280;3641;49.082;8.200;2023-08-31T05:02:59;99936.88;;;14.21;89.17
7200;BME280;3641;49.082;8.200;2023-08-31T05:05:25;99941.59;;;14.07;91.95
7200;BME280;3641;49.082;8.200;2023-08-31T05:07:53;99938.28;;;13.92;95.03
7200;BME280;3641;49.082;8.200;2023-08-31T05:10:20;99949.53;;;14.22;89.52
7200;BME280;3641;49.082;8.200;2023-08-31T05:12:46;99946.41;;;14.12;93.59
7200;BME280;3641;49.082;8.200;2023-08-31T05:15:13;99949.75;;;13.75;94.91
7200;BME280;3641;49.082;8.200;2023-08-31T05:17:40;99960.19;;;14.05;93.63
7200;BME280;3641;49.082;8.200;2023-08-31T05:20:08;99962.94;;;13.98;93.40
7200;BME280;3641;49.082;8.200;2023-08-31T05:22:35;99960.72;;;14.27;88.56
7200;BME280;3641;49.082;8.200;2023-08-31T05:25:03;99967.00;;;13.89;94.12
7200;BME280;3641;49.082;8.200;2023-08-31T05:27:30;99971.19;;;13.98;93.89
7200;BME280;3641;49.082;8.200;2023-08-31T05:29:56;99967.59;;;13.98;93.10
7200;BME280;3641;49.082;8.200;2023-08-31T05:32:23;99974.19;;;14.35;88.84
7200;BME280;3641;49.082;8.200;2023-08-31T05:34:49;99980.19;;;14.19;89.64
7200;BME280;3641;49.082;8.200;2023-08-31T05:37:16;99980.81;;;13.49;95.97
7200;BME280;3641;49.082;8.200;2023-08-31T05:39:47;99979.41;;;13.98;92.13
7200;BME280;3641;49.082;8.200;2023-08-31T05:42:15;99986.19;;;13.89;92.79
7200;BME280;3641;49.082;8.200;2023-08-31T05:44:41;99991.16;;;13.54;95.98
7200;BME280;3641;49.082;8.200;2023-08-31T05:47:08;99994.97;;;14.18;89.24
7200;BME280;3641;49.082;8.200;2023-08-31T05:49:34;99989.88;;;13.50;96.34
7200;BME280;3641;49.082;8.200;2023-08-31T05:52:01;99992.50;;;14.03;91.65
7200;BME280;3641;49.082;8.200;2023-08-31T05:54:27;99989.16;;;13.88;94.04
7200;BME280;3641;49.082;8.200;2023-08-31T05:56:54;99982.97;;;13.40;95.96
7200;BME280;3641;49.082;8.200;2023-08-31T05:59:22;99988.22;;;13.15;99.17
7200;BME280;3641;49.082;8.200;2023-08-31T06:01:48;99986.91;;;13.65;96.29
7200;BME280;3641;49.082;8.200;2023-08-31T06:04:15;99996.66;;;14.19;88.41
7200;BME280;3641;49.082;8.200;2023-08-31T06:06:41;99991.88;;;13.94;91.38
7200;BME280;3641;49.082;8.200;2023-08-31T06:09:08;99998.13;;;13.43;97.39
7200;BME280;3641;49.082;8.200;2023-08-31T06:11:36;100008.25;;;13.29;98.77
7200;BME280;3641;49.082;8.200;2023-08-31T06:14:04;100017.09;;;13.31;98.53
7200;BME280;3641;49.082;8.200;2023-08-31T06:16:32;100010.53;;;13.25;99.64
7200;BME280;3641;49.082;8.200;2023-08-31T06:18:59;100006.78;;;13.40;98.66
7200;BME280;3641;49.082;8.200;2023-08-31T06:21:25;100009.00;;;13.90;93.92
7200;BME280;3641;49.082;8.200;2023-08-31T06:23:52;100011.13;;;13.81;96.15
7200;BME280;3641;49.082;8.200;2023-08-31T06:26:18;100006.72;;;13.73;94.92
7200;BME280;3641;49.082;8.200;2023-08-31T06:28:45;100003.53;;;13.83;94.42
7200;BME280;3641;49.082;8.200;2023-08-31T06:31:11;100005.38;;;14.03;92.62
7200;BME280;3641;49.082;8.200;2023-08-31T06:33:39;100012.63;;;13.77;95.80
7200;BME280;3641;49.082;8.200;2023-08-31T06:36:06;100010.53;;;14.31;89.98
7200;BME280;3641;49.082;8.200;2023-08-31T06:38:32;100013.44;;;13.91;94.99
7200;BME280;3641;49.082;8.200;2023-08-31T06:41:01;100012.19;;;14.39;90.51
7200;BME280;3641;49.082;8.200;2023-08-31T06:43:28;100020.59;;;14.50;88.87
7200;BME280;3641;49.082;8.200;2023-08-31T06:45:54;100021.06;;;14.34;91.93
7200;BME280;3641;49.082;8.200;2023-08-31T06:48:20;100024.25;;;14.38;93.18
7200;BME280;3641;49.082;8.200;2023-08-31T06:50:48;100028.28;;;14.28;94.63
7200;BME280;3641;49.082;8.200;2023-08-31T06:53:15;100031.16;;;14.47;92.64
7200;BME280;3641;49.082;8.200;2023-08-31T06:55:41;100034.69;;;14.15;93.33
7200;BME280;3641;49.082;8.200;2023-08-31T06:58:07;100034.72;;;14.54;90.61
7200;BME280;3641;49.082;8.200;2023-08-31T07:00:34;100043.09;;;14.21;93.08
7200;BME280;3641;49.082;8.200;2023-08-31T07:03:00;100037.84;;;14.64;89.40
7200;BME280;3641;49.082;8.200;2023-08-31T07:05:27;100044.31;;;14.38;91.09
7200;BME280;3641;49.082;8.200;2023-08-31T07:07:56;100048.44;;;14.54;90.45
7200;BME280;3641;49.082;8.200;2023-08-31T07:10:23;100040.88;;;14.49;91.84
7200;BME280;3641;49.082;8.200;2023-08-31T07:12:50;100040.03;;;14.49;90.65
7200;BME280;3641;49.082;8.200;2023-08-31T07:15:16;100050.75;;;14.64;89.67
7200;BME280;3641;49.082;8.200;2023-08-31T07:17:43;100048.84;;;14.58;90.40
7200;BME280;3641;49.082;8.200;2023-08-31T07:20:10;100042.75;;;14.56;90.48
7200;BME280;3641;49.082;8.200;2023-08-31T07:22:37;100052.41;;;14.71;89.17
7200;BME280;3641;49.082;8.200;2023-08-31T07:25:07;100050.53;;;14.65;90.23
7200;BME280;3641;49.082;8.200;2023-08-31T07:27:34;100045.16;;;14.84;89.06
7200;BME280;3641;49.082;8.200;2023-08-31T07:30:00;100047.22;;;14.88;89.95
7200;BME280;3641;49.082;8.200;2023-08-31T07:32:28;100058.97;;;15.02;89.03
7200;BME280;3641;49.082;8.200;2023-08-31T07:34:54;100058.59;;;14.99;87.76
7200;BME280;3641;49.082;8.200;2023-08-31T07:37:21;100061.22;;;15.12;87.29
7200;BME280;3641;49.082;8.200;2023-08-31T07:39:48;100064.19;;;15.11;86.50
7200;BME280;3641;49.082;8.200;2023-08-31T07:42:16;100067.72;;;15.24;84.53
7200;BME280;3641;49.082;8.200;2023-08-31T07:44:42;100070.84;;;15.28;83.91
7200;BME280;3641;49.082;8.200;2023-08-31T07:47:09;100074.38;;;15.10;84.03
7200;BME280;3641;49.082;8.200;2023-08-31T07:49:36;100066.28;;;15.15;83.15
7200;BME280;3641;49.082;8.200;2023-08-31T07:52:03;100067.88;;;15.30;82.96
7200;BME280;3641;49.082;8.200;2023-08-31T07:54:30;100073.38;;;15.30;81.75
7200;BME280;3641;49.082;8.200;2023-08-31T07:56:56;100078.44;;;15.33;82.32
7200;BME280;3641;49.082;8.200;2023-08-31T07:59:24;100084.31;;;15.36;80.44
7200;BME280;3641;49.082;8.200;2023-08-31T08:01:50;100086.69;;;15.33;79.82
7200;BME280;3641;49.082;8.200;2023-08-31T08:04:17;100084.91;;;15.45;80.30
7200;BME280;3641;49.082;8.200;2023-08-31T08:06:44;100084.72;;;15.65;81.08
7200;BME280;3641;49.082;8.200;2023-08-31T08:09:11;100078.38;;;15.65;78.22
7200;BME280;3641;49.082;8.200;2023-08-31T08:11:37;100086.09;;;15.81;78.37
7200;BME280;3641;49.082;8.200;2023-08-31T08:14:04;100086.94;;;15.82;78.69
7200;BME280;3641;49.082;8.200;2023-08-31T08:16:32;100095.47;;;15.73;78.04
7200;BME280;3641;49.082;8.200;2023-08-31T08:19:00;100091.84;;;15.79;78.95
7200;BME280;3641;49.082;8.200;2023-08-31T08:21:27;100094.75;;;15.85;77.74
7200;BME280;3641;49.082;8.200;2023-08-31T08:23:53;100105.75;;;15.85;77.13
7200;BME280;3641;49.082;8.200;2023-08-31T08:26:20;100106.69;;;15.97;77.49
7200;BME280;3641;49.082;8.200;2023-08-31T08:28:46;100108.72;;;16.08;76.37
7200;BME280;3641;49.082;8.200;2023-08-31T08:31:12;100106.56;;;16.10;74.28
7200;BME280;3641;49.082;8.200;2023-08-31T08:33:40;100109.63;;;16.02;72.85
7200;BME280;3641;49.082;8.200;2023-08-31T08:36:07;100100.81;;;16.12;72.90
7200;BME280;3641;49.082;8.200;2023-08-31T08:38:33;100106.41;;;16.24;73.43
7200;BME280;3641;49.082;8.200;2023-08-31T08:41:04;100108.81;;;16.39;74.84
7200;BME280;3641;49.082;8.200;2023-08-31T08:43:31;100103.75;;;16.36;74.59
7200;BME280;3641;49.082;8.200;2023-08-31T08:46:02;100103.81;;;16.29;72.59
7200;BME280;3641;49.082;8.200;2023-08-31T08:48:31;100121.47;;;16.40;74.94
7200;BME280;3641;49.082;8.200;2023-08-31T08:50:59;100114.97;;;16.15;70.24
7200;BME280;3641;49.082;8.200;2023-08-31T08:53:26;100109.69;;;16.14;69.86
7200;BME280;3641;49.082;8.200;2023-08-31T08:55:53;100117.13;;;16.32;70.51
7200;BME280;3641;49.082;8.200;2023-08-31T08:58:19;100111.38;;;16.33;66.35
7200;BME280;3641;49.082;8.200;2023-08-31T09:00:46;100108.25;;;16.48;67.24
7200;BME280;3641;49.082;8.200;2023-08-31T09:03:13;100099.59;;;16.45;67.55
7200;BME280;3641;49.082;8.200;2023-08-31T09:05:40;100098.69;;;16.51;67.60
7200;BME280;3641;49.082;8.200;2023-08-31T09:08:08;100104.97;;;16.58;66.90
7200;BME280;3641;49.082;8.200;2023-08-31T09:10:36;100107.84;;;16.63;65.43
7200;BME280;3641;49.082;8.200;2023-08-31T09:13:05;100104.41;;;16.68;65.94
7200;BME280;3641;49.082;8.200;2023-08-31T09:15:40;100102.94;;;16.65;65.08
7200;BME280;3641;49.082;8.200;2023-08-31T09:18:08;100110.19;;;16.78;66.69
7200;BME280;3641;49.082;8.200;2023-08-31T09:20:43;100105.91;;;16.82;65.88
7200;BME280;3641;49.082;8.200;2023-08-31T09:23:11;100108.44;;;16.84;65.08
7200;BME280;3641;49.082;8.200;2023-08-31T09:25:41;100115.34;;;16.93;62.79
7200;BME280;3641;49.082;8.200;2023-08-31T09:28:08;100108.34;;;17.09;65.56
7200;BME280;3641;49.082;8.200;2023-08-31T09:30:35;100103.22;;;16.94;62.60
7200;BME280;3641;49.082;8.200;2023-08-31T09:33:03;100103.56;;;17.16;62.39
7200;BME280;3641;49.082;8.200;2023-08-31T09:35:30;100102.16;;;17.25;61.28
7200;BME280;3641;49.082;8.200;2023-08-31T09:37:57;100121.22;;;17.27;60.20
7200;BME280;3641;49.082;8.200;2023-08-31T09:40:25;100109.72;;;17.30;62.71
7200;BME280;3641;49.082;8.200;2023-08-31T09:42:51;100103.16;;;17.43;60.34
7200;BME280;3641;49.082;8.200;2023-08-31T09:45:18;100108.91;;;17.53;59.99
7200;BME280;3641;49.082;8.200;2023-08-31T09:47:50;100106.56;;;17.57;62.62
7200;BME280;3641;49.082;8.200;2023-08-31T09:50:18;100106.19;;;17.65;61.84
7200;BME280;3641;49.082;8.200;2023-08-31T09:52:46;100099.81;;;17.53;58.85
7200;BME280;3641;49.082;8.200;2023-08-31T09:55:14;100103.66;;;17.64;58.50
7200;BME280;3641;49.082;8.200;2023-08-31T09:57:43;100096.47;;;17.63;59.81
7200;BME280;3641;49.082;8.200;2023-08-31T10:00:12;100100.78;;;17.82;60.30
7200;BME280;3641;49.082;8.200;2023-08-31T10:02:41;100103.50;;;17.89;60.20
7200;BME280;3641;49.082;8.200;2023-08-31T10:05:08;100106.66;;;17.74;57.77
7200;BME280;3641;49.082;8.200;2023-08-31T10:07:35;100107.06;;;17.77;61.17
7200;BME280;3641;49.082;8.200;2023-08-31T10:10:02;100114.47;;;17.77;63.22
7200;BME280;3641;49.082;8.200;2023-08-31T10:12:30;100111.84;;;17.70;59.03
7200;BME280;3641;49.082;8.200;2023-08-31T10:14:58;100110.03;;;17.64;59.99
7200;BME280;3641;49.082;8.200;2023-08-31T10:17:26;100105.44;;;17.58;62.45
7200;BME280;3641;49.082;8.200;2023-08-31T10:19:54;100113.22;;;17.37;62.27
7200;BME280;3641;49.082;8.200;2023-08-31T10:22:21;100115.13;;;17.37;63.10
7200;BME280;3641;49.082;8.200;2023-08-31T10:24:57;100113.31;;;17.31;63.04
7200;BME280;3641;49.082;8.200;2023-08-31T10:27:24;100114.84;;;17.57;62.49
7200;BME280;3641;49.082;8.200;2023-08-31T10:29:50;100111.72;;;17.65;63.38
7200;BME280;3641;49.082;8.200;2023-08-31T10:32:18;100117.88;;;17.79;62.23
7200;BME280;3641;49.082;8.200;2023-08-31T10:35:04;100112.59;;;17.89;63.12
7200;BME280;3641;49.082;8.200;2023-08-31T10:37:31;100115.13;;;18.03;63.92
7200;BME280;3641;49.082;8.200;2023-08-31T10:40:06;100120.97;;;18.30;60.63
7200;BME280;3641;49.082;8.200;2023-08-31T10:42:41;100114.75;;;17.99;60.84
7200;BME280;3641;49.082;8.200;2023-08-31T10:45:08;100111.28;;;18.04;61.16
7200;BME280;3641;49.082;8.200;2023-08-31T10:47:40;100115.25;;;18.08;64.66
7200;BME280;3641;49.082;8.200;2023-08-31T10:50:17;100112.13;;;18.04;62.45
7200;BME280;3641;49.082;8.200;2023-08-31T10:52:44;100121.06;;;17.64;62.76
7200;BME280;3641;49.082;8.200;2023-08-31T10:55:11;100115.19;;;17.72;63.27
7200;BME280;3641;49.082;8.200;2023-08-31T10:57:39;100122.69;;;17.95;60.80
7200;BME280;3641;49.082;8.200;2023-08-31T11:00:07;100117.16;;;18.07;60.12
7200;BME280;3641;49.082;8.200;2023-08-31T11:02:35;100115.13;;;17.91;59.50
7200;BME280;3641;49.082;8.200;2023-08-31T11:05:06;100117.13;;;17.84;60.61
7200;BME280;3641;49.082;8.200;2023-08-31T11:07:34;100123.97;;;17.81;61.16
7200;BME280;3641;49.082;8.200;2023-08-31T11:10:15;100122.63;;;17.60;59.96
7200;BME280;3641;49.082;8.200;2023-08-31T11:12:43;100122.75;;;17.65;60.24
7200;BME280;3641;49.082;8.200;2023-08-31T11:15:11;100121.19;;;17.69;60.33
7200;BME280;3641;49.082;8.200;2023-08-31T11:17:39;100113.53;;;17.71;61.46
7200;BME280;3641;49.082;8.200;2023-08-31T11:20:08;100116.97;;;17.55;61.12
7200;BME280;3641;49.082;8.200;2023-08-31T11:22:38;100105.84;;;17.61;61.07
7200;BME280;3641;49.082;8.200;2023-08-31T11:25:07;100110.38;;;17.68;63.05
7200;BME280;3641;49.082;8.200;2023-08-31T11:27:33;100105.16;;;18.02;64.04
7200;BME280;3641;49.082;8.200;2023-08-31T11:30:00;100102.41;;;18.25;62.05
7200;BME280;3641;49.082;8.200;2023-08-31T11:32:26;100091.94;;;18.15;59.74
7200;BME280;3641;49.082;8.200;2023-08-31T11:34:52;100100.03;;;18.46;58.58
7200;BME280;3641;49.082;8.200;2023-08-31T11:37:20;100105.72;;;18.51;62.32
7200;BME280;3641;49.082;8.200;2023-08-31T11:39:49;100096.34;;;18.28;59.15
7200;BME280;3641;49.082;8.200;2023-08-31T11:42:16;100095.28;;;18.41;58.82
7200;BME280;3641;49.082;8.200;2023-08-31T11:44:43;100092.38;;;18.48;59.41
7200;BME280;3641;49.082;8.200;2023-08-31T11:47:10;100088.63;;;18.54;60.94
7200;BME280;3641;49.082;8.200;2023-08-31T11:49:37;100090.34;;;18.43;56.61
7200;BME280;3641;49.082;8.200;2023-08-31T11:52:04;100090.47;;;18.37;56.47
7200;BME280;3641;49.082;8.200;2023-08-31T11:54:32;100091.94;;;18.27;56.89
7200;BME280;3641;49.082;8.200;2023-08-31T11:56:59;100087.59;;;18.20;57.71
7200;BME280;3641;49.082;8.200;2023-08-31T11:59:25;100083.16;;;18.19;57.51
7200;BME280;3641;49.082;8.200;2023-08-31T12:01:52;100084.13;;;18.12;57.45
7200;BME280;3641;49.082;8.200;2023-08-31T12:04:20;100080.66;;;18.05;57.84
7200;BME280;3641;49.082;8.200;2023-08-31T12:06:50;100088.47;;;18.08;57.71
7200;BME280;3641;49.082;8.200;2023-08-31T12:09:16;100087.75;;;18.13;58.43
7200;BME280;3641;49.082;8.200;2023-08-31T12:11:50;100093.38;;;18.18;62.22
7200;BME280;3641;49.082;8.200;2023-08-31T12:14:19;100087.75;;;18.13;61.95
7200;BME280;3641;49.082;8.200;2023-08-31T12:16:45;100088.09;;;18.17;60.24
7200;BME280;3641;49.082;8.200;2023-08-31T12:19:11;100084.59;;;18.21;58.89
7200;BME280;3641;49.082;8.200;2023-08-31T12:21:37;100083.50;;;18.34;60.21
7200;BME280;3641;49.082;8.200;2023-08-31T12:24:05;100072.78;;;18.38;57.57
7200;BME280;3641;49.082;8.200;2023-08-31T12:26:31;100077.72;;;18.36;59.50
7200;BME280;3641;49.082;8.200;2023-08-31T12:28:59;100074.72;;;18.37;58.32
7200;BME280;3641;49.082;8.200;2023-08-31T12:31:26;100075.34;;;18.27;58.28
7200;BME280;3641;49.082;8.200;2023-08-31T12:33:52;100077.72;;;18.36;60.92
7200;BME280;3641;49.082;8.200;2023-08-31T12:36:19;100084.47;;;18.28;57.28
7200;BME280;3641;49.082;8.200;2023-08-31T12:38:46;100083.97;;;18.31;57.26
7200;BME280;3641;49.082;8.200;2023-08-31T12:41:12;100082.63;;;18.45;57.95
7200;BME280;3641;49.082;8.200;2023-08-31T12:43:39;100084.75;;;18.55;58.97
7200;BME280;3641;49.082;8.200;2023-08-31T12:46:06;100086.13;;;18.52;57.87
7200;BME280;3641;49.082;8.200;2023-08-31T12:48:34;100081.75;;;18.68;58.79
7200;BME280;3641;49.082;8.200;2023-08-31T12:51:01;100077.63;;;18.71;57.58
7200;BME280;3641;49.082;8.200;2023-08-31T12:53:27;100083.38;;;18.81;57.60
7200;BME280;3641;49.082;8.200;2023-08-31T12:55:54;100074.72;;;18.78;57.86
7200;BME280;3641;49.082;8.200;2023-08-31T12:58:20;100083.63;;;18.80;57.20
7200;BME280;3641;49.082;8.200;2023-08-31T13:00:48;100079.47;;;18.65;57.15
7200;BME280;3641;49.082;8.200;2023-08-31T13:03:16;100072.63;;;18.56;58.50
7200;BME280;3641;49.082;8.200;2023-08-31T13:05:42;100071.09;;;18.48;57.05
7200;BME280;3641;49.082;8.200;2023-08-31T13:08:09;100071.81;;;18.56;61.48
7200;BME280;3641;49.082;8.200;2023-08-31T13:10:35;100078.91;;;18.51;58.49
7200;BME280;3641;49.082;8.200;2023-08-31T13:13:02;100073.94;;;18.65;59.48
7200;BME280;3641;49.082;8.200;2023-08-31T13:15:28;100086.78;;;18.72;57.91